Time;durP1;ratioP1;P1;durP2;ratioP2;P2;SDS_P1;SDS_P2;PMS_P1;PMS_P2;Temp;Humidity;BMP_temperature;BMP_pressure;BME280_temperature;BME280_humidity;BME280_pressure;Samples;Min_cycle;Max_cycle;Signal;HPM_P1;HPM_P2
2021/06/14 00:01:06;;;;;;;10.50;3.92;;;;;;;13.85;96.60;100838.89;1731925;82;20925;-78
2021/06/14 00:03:33;;;;;;;11.50;4.50;;;;;;;13.79;96.60;100845.41;1731941;82;21486;-75
2021/06/14 00:06:00;;;;;;;7.60;3.77;;;;;;;13.74;96.57;100850.63;1731993;82;21771;-76
2021/06/14 00:08:28;;;;;;;7.95;4.20;;;;;;;13.70;96.69;100849.20;1732975;82;20893;-73
2021/06/14 00:10:56;;;;;;;10.55;3.75;;;;;;;13.65;96.99;100848.73;1733626;82;21012;-72
2021/06/14 00:13:26;;;;;;;10.80;4.35;;;;;;;13.60;97.33;100849.53;1733065;82;20960;-73
2021/06/14 00:15:55;;;;;;;9.03;4.42;;;;;;;13.57;97.44;100840.64;1734441;82;21487;-74
2021/06/14 00:18:22;;;;;;;6.85;3.85;;;;;;;13.53;97.82;100848.36;1733623;82;21196;-78
2021/06/14 00:20:56;;;;;;;6.72;3.75;;;;;;;13.49;98.16;100843.00;1733176;82;20964;-71
2021/06/14 00:23:25;;;;;;;7.10;3.62;;;;;;;13.47;98.41;100846.18;1732215;82;21047;-75
2021/06/14 00:25:52;;;;;;;8.73;3.67;;;;;;;13.46;97.71;100845.84;1731893;82;21011;-73
2021/06/14 00:28:19;;;;;;;15.43;3.90;;;;;;;13.45;97.67;100839.80;1732554;80;21110;-77
2021/06/14 00:30:48;;;;;;;7.37;3.67;;;;;;;13.46;97.60;100840.16;1745195;82;21088;-68
2021/06/14 00:33:16;;;;;;;7.95;3.35;;;;;;;13.44;97.62;100840.73;1745265;82;20852;-74
2021/06/14 00:35:44;;;;;;;5.75;3.42;;;;;;;13.44;97.24;100839.89;1745186;82;20987;-72
2021/06/14 00:38:14;;;;;;;7.83;3.87;;;;;;;13.45;96.73;100835.88;1745275;82;21566;-81
2021/06/14 00:40:42;;;;;;;5.78;3.72;;;;;;;13.48;96.47;100843.94;1745353;82;20904;-74
2021/06/14 00:43:09;;;;;;;12.68;4.15;;;;;;;13.47;96.51;100843.57;1745276;82;21778;-74
2021/06/14 00:45:44;;;;;;;7.58;3.75;;;;;;;13.45;96.57;100843.70;1745202;82;21050;-74
2021/06/14 00:48:13;;;;;;;6.35;3.70;;;;;;;13.42;96.59;100840.49;1745262;82;20932;-75
2021/06/14 00:50:55;;;;;;;8.95;3.67;;;;;;;13.40;96.48;100839.29;1745201;82;20996;-75
2021/06/14 00:53:34;;;;;;;7.83;3.35;;;;;;;13.37;96.59;100838.72;1745287;82;21027;-74
2021/06/14 00:56:05;;;;;;;7.58;3.40;;;;;;;13.33;96.76;100848.54;1745198;82;21777;-78
2021/06/14 00:58:36;;;;;;;5.37;3.37;;;;;;;13.30;97.18;100840.95;1745411;82;21518;-75
2021/06/14 01:01:05;;;;;;;6.25;3.35;;;;;;;13.26;97.11;100844.72;1745100;82;20944;-75
2021/06/14 01:03:31;;;;;;;7.87;3.50;;;;;;;13.24;97.10;100847.42;1745280;82;21558;-71
2021/06/14 01:06:02;;;;;;;9.58;4.05;;;;;;;13.24;96.61;100845.31;1745327;82;20975;-73
2021/06/14 01:08:34;;;;;;;6.28;3.10;;;;;;;13.23;96.34;100843.17;1745185;82;22741;-76
2021/06/14 01:11:06;;;;;;;8.05;3.42;;;;;;;13.24;96.72;100843.52;1745206;82;21006;-76
2021/06/14 01:13:42;;;;;;;6.15;3.00;;;;;;;13.21;96.99;100840.30;1745242;82;20868;-71
2021/06/14 01:16:49;;;;;;;4.92;3.52;;;;;;;13.17;97.34;100847.55;1745346;82;21026;-72
2021/06/14 01:19:51;;;;;;;7.55;3.37;;;;;;;13.15;97.37;100847.27;1745342;82;20999;-69
2021/06/14 01:22:48;;;;;;;5.53;3.40;;;;;;;13.14;97.53;100851.67;1745032;82;21136;-69
2021/06/14 01:25:29;;;;;;;6.70;3.85;;;;;;;13.15;97.60;100847.27;1745123;82;21708;-69
2021/06/14 01:27:58;;;;;;;8.90;3.67;;;;;;;13.15;97.10;100848.57;1745462;82;21042;-79
2021/06/14 01:30:30;;;;;;;6.28;3.52;;;;;;;13.13;96.99;100850.00;1744934;82;20911;-74
2021/06/14 01:32:57;;;;;;;7.22;3.20;;;;;;;13.10;97.21;100845.02;1745050;82;20951;-71
2021/06/14 01:35:53;;;;;;;5.95;3.15;;;;;;;13.06;97.23;100844.84;1722465;82;21598;-71
2021/06/14 01:38:22;;;;;;;4.50;2.72;;;;;;;13.04;97.25;100841.53;1702806;84;21053;-72
2021/06/14 01:40:55;;;;;;;4.53;3.22;;;;;;;13.04;97.14;100842.84;1703537;84;20954;-77
2021/06/14 01:43:26;;;;;;;7.50;3.22;;;;;;;13.04;97.01;100836.32;1703810;84;21021;-71
2021/06/14 01:46:00;;;;;;;5.08;2.98;;;;;;;13.04;96.54;100835.02;1703709;84;20993;-72
2021/06/14 01:48:28;;;;;;;11.68;3.60;;;;;;;13.05;96.63;100836.66;1703550;84;21794;-72
2021/06/14 01:50:56;;;;;;;7.10;3.02;;;;;;;13.04;96.28;100832.41;1703775;84;21037;-75
2021/06/14 01:53:24;;;;;;;4.70;3.00;;;;;;;13.06;96.10;100833.59;1704461;84;21101;-76
2021/06/14 01:55:54;;;;;;;6.45;3.77;;;;;;;13.02;96.08;100828.23;1684910;84;21045;-73
2021/06/14 01:58:22;;;;;;;7.00;3.10;;;;;;;12.99;95.76;100834.98;1704110;84;21733;-71
2021/06/14 02:00:57;;;;;;;6.65;3.10;;;;;;;12.95;95.71;100833.56;1703068;84;21843;-76
2021/06/14 02:03:35;;;;;;;5.08;2.83;;;;;;;12.92;95.47;100832.02;1693348;84;20950;-70
2021/06/14 02:06:06;;;;;;;6.40;3.25;;;;;;;12.89;95.94;100838.72;1702510;84;20962;-72
2021/06/14 02:08:33;;;;;;;4.95;2.65;;;;;;;12.87;96.05;100841.92;1703576;84;20985;-76
2021/06/14 02:11:01;;;;;;;8.08;2.95;;;;;;;12.85;96.31;100836.47;1703620;84;20961;-75
2021/06/14 02:13:29;;;;;;;7.58;2.85;;;;;;;12.81;96.31;100837.63;1703487;84;21176;-73
2021/06/14 02:15:57;;;;;;;5.28;2.45;;;;;;;12.79;96.71;100833.01;1703596;84;21017;-76
2021/06/14 02:18:24;;;;;;;4.45;2.72;;;;;;;12.76;97.10;100837.98;1703579;84;21080;-72
2021/06/14 02:20:53;;;;;;;4.95;2.37;;;;;;;12.73;97.17;100835.59;1703057;84;20986;-75
2021/06/14 02:23:21;;;;;;;6.00;3.00;;;;;;;12.70;97.19;100835.78;1703591;84;21061;-76
2021/06/14 02:25:50;;;;;;;5.10;2.80;;;;;;;12.66;97.36;100831.30;1703672;84;21124;-75
2021/06/14 02:28:17;;;;;;;6.72;2.92;;;;;;;12.65;97.52;100831.39;1703290;84;21497;-74
2021/06/14 02:30:45;;;;;;;5.30;2.50;;;;;;;12.60;97.83;100831.70;1708808;83;20976;-73
2021/06/14 02:33:13;;;;;;;3.47;2.85;;;;;;;12.56;98.20;100828.98;1693308;84;20977;-73
2021/06/14 02:35:42;;;;;;;4.17;2.62;;;;;;;12.53;98.58;100824.00;1690333;84;21000;-76
2021/06/14 02:38:09;;;;;;;8.60;3.37;;;;;;;12.49;98.77;100821.71;1711806;82;21105;-76
2021/06/14 02:40:39;;;;;;;6.33;3.02;;;;;;;12.49;99.06;100819.11;1667090;83;21010;-76
2021/06/14 02:43:08;;;;;;;6.33;2.87;;;;;;;12.47;99.01;100817.09;1711783;83;21543;-74
2021/06/14 02:45:37;;;;;;;5.78;2.62;;;;;;;12.45;99.05;100820.27;1711699;83;20965;-73
2021/06/14 02:48:07;;;;;;;6.35;3.05;;;;;;;12.42;99.12;100821.78;1710870;83;20930;-76
2021/06/14 02:50:36;;;;;;;3.45;2.67;;;;;;;12.41;99.07;100819.64;1711790;83;21050;-75
2021/06/14 02:53:07;;;;;;;5.65;2.67;;;;;;;12.41;99.41;100822.24;1755281;81;20979;-72
2021/06/14 02:55:38;;;;;;;6.20;2.47;;;;;;;12.41;99.35;100824.05;1755519;81;21501;-71
2021/06/14 02:58:05;;;;;;;5.53;2.80;;;;;;;12.40;99.46;100823.20;1754997;81;21002;-71
2021/06/14 03:00:32;;;;;;;3.72;3.10;;;;;;;12.39;99.60;100822.84;1755347;81;21545;-76
2021/06/14 03:03:04;;;;;;;3.45;2.55;;;;;;;12.41;99.31;100825.34;1755376;81;21183;-75
2021/06/14 03:05:32;;;;;;;5.97;2.95;;;;;;;12.42;99.30;100825.69;1755242;81;20939;-73
2021/06/14 03:08:00;;;;;;;5.75;2.87;;;;;;;12.43;99.28;100824.75;1755434;81;21114;-75
2021/06/14 03:10:30;;;;;;;7.45;2.72;;;;;;;12.45;99.18;100832.80;1755415;81;20986;-79
2021/06/14 03:12:57;;;;;;;3.98;2.62;;;;;;;12.47;99.52;100834.02;1755467;81;20919;-76
2021/06/14 03:15:25;;;;;;;5.85;3.05;;;;;;;12.48;99.19;100826.55;1755438;81;21796;-72
2021/06/14 03:17:53;;;;;;;5.55;2.60;;;;;;;12.47;99.12;100826.20;1755334;81;20947;-74
2021/06/14 03:20:22;;;;;;;4.42;2.70;;;;;;;12.48;99.28;100815.67;1755253;81;20995;-73
2021/06/14 03:22:50;;;;;;;4.75;3.17;;;;;;;12.50;99.25;100820.31;1755146;81;20971;-73
2021/06/14 03:25:18;;;;;;;3.83;2.90;;;;;;;12.53;98.81;100821.86;1755443;81;20931;-76
2021/06/14 03:27:46;;;;;;;3.00;2.55;;;;;;;12.54;98.84;100822.23;1755482;81;21789;-75
2021/06/14 03:30:14;;;;;;;4.78;3.17;;;;;;;12.55;98.94;100826.48;1749920;81;21592;-75
2021/06/14 03:32:42;;;;;;;7.50;3.15;;;;;;;12.58;99.04;100827.09;1742587;82;20983;-70
2021/06/14 03:35:13;;;;;;;3.52;2.70;;;;;;;12.61;98.89;100830.77;1742405;82;21530;-72
2021/06/14 03:37:40;;;;;;;7.75;2.60;;;;;;;12.63;98.95;100826.31;1711872;82;21027;-78
2021/06/14 03:40:10;;;;;;;4.62;3.27;;;;;;;12.67;98.65;100828.20;1742448;82;21115;-73
2021/06/14 03:42:37;;;;;;;3.75;2.50;;;;;;;12.69;98.69;100831.08;1711810;82;20892;-74
2021/06/14 03:45:06;;;;;;;3.33;2.50;;;;;;;12.72;98.44;100830.85;1742235;82;21643;-72
2021/06/14 03:47:34;;;;;;;3.37;2.37;;;;;;;12.74;98.66;100831.56;1742234;82;20983;-80
2021/06/14 03:50:01;;;;;;;4.78;2.65;;;;;;;12.79;98.63;100833.01;1742138;82;21712;-69
2021/06/14 03:52:29;;;;;;;3.60;2.70;;;;;;;12.83;98.45;100826.14;1742404;82;21934;-72
2021/06/14 03:54:56;;;;;;;6.45;2.85;;;;;;;12.86;98.26;100827.72;1742364;82;20920;-69
2021/06/14 03:57:23;;;;;;;3.67;2.72;;;;;;;12.90;98.49;100821.33;1742295;82;20956;-74
2021/06/14 03:59:50;;;;;;;4.20;2.33;;;;;;;12.94;98.63;100826.21;1742037;82;20979;-69
2021/06/14 04:02:17;;;;;;;7.10;2.90;;;;;;;13.00;98.78;100831.44;1742187;82;21106;-72
2021/06/14 04:04:55;;;;;;;5.40;2.92;;;;;;;13.04;98.35;100832.41;1742366;82;21110;-76
2021/06/14 04:07:21;;;;;;;5.20;2.60;;;;;;;13.07;97.62;100829.58;1741329;81;20983;-74
2021/06/14 04:09:49;;;;;;;2.95;2.58;;;;;;;13.12;97.79;100837.08;1742212;82;20955;-73
2021/06/14 04:12:17;;;;;;;5.22;2.45;;;;;;;13.15;97.49;100833.77;1742443;82;20944;-78
2021/06/14 04:14:46;;;;;;;7.00;2.45;;;;;;;13.19;97.54;100838.29;1742593;82;21042;-70
2021/06/14 04:17:13;;;;;;;3.95;2.72;;;;;;;13.25;97.37;100839.14;1742572;82;21504;-76
2021/06/14 04:19:40;;;;;;;3.58;2.35;;;;;;;13.30;97.63;100835.73;1742404;82;21503;-74
2021/06/14 04:22:07;;;;;;;5.47;2.75;;;;;;;13.37;97.72;100841.32;1742248;82;20892;-77
2021/06/14 04:24:34;;;;;;;4.60;2.87;;;;;;;13.43;97.80;100842.16;1742465;82;20995;-74
2021/06/14 04:27:02;;;;;;;4.67;2.77;;;;;;;13.50;97.95;100847.25;1742344;82;20959;-74
2021/06/14 04:29:29;;;;;;;4.92;2.58;;;;;;;13.55;96.96;100849.89;1742402;82;21130;-76
2021/06/14 04:31:58;;;;;;;3.22;2.87;;;;;;;13.58;96.21;100848.36;1763350;81;20920;-74
2021/06/14 04:34:26;;;;;;;4.03;2.75;;;;;;;13.63;96.53;100850.13;1763848;81;20895;-76
2021/06/14 04:36:53;;;;;;;2.85;2.45;;;;;;;13.70;97.00;100846.59;1763766;81;21026;-73
2021/06/14 04:39:21;;;;;;;3.60;2.58;;;;;;;13.73;95.94;100841.97;1763828;81;21497;-76
2021/06/14 04:41:48;;;;;;;3.70;2.58;;;;;;;13.76;95.33;100844.34;1763625;81;21775;-77
2021/06/14 04:44:15;;;;;;;3.60;2.90;;;;;;;13.79;95.09;100848.02;1763751;81;20955;-73
2021/06/14 04:46:43;;;;;;;6.00;2.85;;;;;;;13.84;96.08;100850.30;1763735;81;20986;-72
2021/06/14 04:49:10;;;;;;;3.02;2.70;;;;;;;13.89;95.21;100848.15;1763669;81;21054;-75
2021/06/14 04:51:37;;;;;;;2.62;2.40;;;;;;;13.93;94.11;100850.05;1763754;81;20935;-69
2021/06/14 04:54:05;;;;;;;2.50;2.30;;;;;;;13.97;94.66;100847.10;1763657;81;21943;-73
2021/06/14 04:56:32;;;;;;;3.10;2.58;;;;;;;14.04;94.53;100850.07;1763677;81;21002;-76
2021/06/14 04:58:59;;;;;;;7.92;2.50;;;;;;;14.08;93.79;100849.70;1763682;81;20887;-71
2021/06/14 05:01:27;;;;;;;4.50;2.45;;;;;;;14.13;94.33;100859.32;1763769;81;20955;-73
2021/06/14 05:03:55;;;;;;;4.70;2.60;;;;;;;14.18;94.17;100859.78;1763682;81;21002;-76
2021/06/14 05:06:22;;;;;;;4.33;2.85;;;;;;;14.22;93.47;100866.44;1763894;81;21801;-79
2021/06/14 05:08:50;;;;;;;3.37;2.42;;;;;;;14.29;93.07;100868.09;1763627;81;21037;-69
2021/06/14 05:11:17;;;;;;;3.27;2.35;;;;;;;14.33;93.00;100870.83;1763734;81;21078;-73
2021/06/14 05:13:46;;;;;;;5.35;2.33;;;;;;;14.39;93.33;100874.26;1763824;81;21023;-76
2021/06/14 05:16:13;;;;;;;4.70;3.40;;;;;;;14.44;91.87;100879.97;1764259;81;20986;-72
2021/06/14 05:18:41;;;;;;;4.58;3.40;;;;;;;14.50;93.02;100874.73;1764112;81;21517;-78
2021/06/14 05:21:10;;;;;;;5.65;2.42;;;;;;;14.55;93.37;100878.63;1763754;81;20939;-74
2021/06/14 05:23:39;;;;;;;3.65;2.77;;;;;;;14.64;92.92;100879.71;1763671;81;20867;-70
2021/06/14 05:26:05;;;;;;;4.50;2.45;;;;;;;14.73;91.56;100882.89;1763780;81;20934;-73
2021/06/14 05:28:33;;;;;;;9.80;2.50;;;;;;;14.77;90.92;100879.89;1763682;81;20951;-77
2021/06/14 05:31:00;;;;;;;6.12;2.95;;;;;;;14.83;90.06;100883.82;1755088;81;21140;-79
2021/06/14 05:33:29;;;;;;;4.70;3.25;;;;;;;14.87;89.17;100881.80;1744838;82;20888;-77
2021/06/14 05:35:56;;;;;;;45.12;40.78;;;;;;;14.88;88.98;100880.82;1744912;82;21494;-71
2021/06/14 05:38:23;;;;;;;6.62;2.95;;;;;;;14.92;89.32;100886.16;1744900;82;21700;-77
2021/06/14 05:40:50;;;;;;;3.75;2.52;;;;;;;15.00;90.22;100885.05;1744967;82;20967;-73
2021/06/14 05:43:17;;;;;;;3.87;2.27;;;;;;;15.08;89.14;100883.50;1744801;82;21110;-72
2021/06/14 05:45:45;;;;;;;3.17;2.72;;;;;;;15.15;88.98;100891.20;1744940;82;20979;-70
2021/06/14 05:48:12;;;;;;;7.05;3.12;;;;;;;15.19;87.85;100879.99;1744998;82;20912;-69
2021/06/14 05:50:39;;;;;;;3.83;2.58;;;;;;;15.22;88.67;100879.27;1745024;82;21031;-73
2021/06/14 05:53:06;;;;;;;4.05;2.80;;;;;;;15.31;88.49;100885.55;1744876;82;20888;-71
2021/06/14 05:55:33;;;;;;;5.00;2.83;;;;;;;15.40;88.11;100882.17;1744903;82;21498;-72
2021/06/14 05:58:00;;;;;;;4.05;2.35;;;;;;;15.45;87.10;100883.92;1744545;82;20983;-71
2021/06/14 06:00:28;;;;;;;6.12;2.40;;;;;;;15.51;86.28;100886.05;1735575;82;20912;-71
2021/06/14 06:02:55;;;;;;;3.55;2.52;;;;;;;15.57;86.03;100890.77;1728673;82;21031;-72
2021/06/14 06:05:22;;;;;;;4.72;3.22;;;;;;;15.65;86.25;100887.53;1744724;82;20963;-74
2021/06/14 06:07:50;;;;;;;4.35;2.67;;;;;;;15.73;87.03;100893.77;1744721;82;21042;-74
2021/06/14 06:10:17;;;;;;;7.12;2.58;;;;;;;15.83;86.87;100894.66;1744741;82;21062;-75
2021/06/14 06:12:45;;;;;;;4.50;2.60;;;;;;;15.93;85.83;100891.27;1744824;82;20936;-76
2021/06/14 06:15:16;;;;;;;4.83;2.75;;;;;;;15.95;84.52;100887.58;1744823;82;20935;-74
2021/06/14 06:17:44;;;;;;;2.83;2.63;;;;;;;15.92;84.00;100885.70;1745211;82;21541;-74
2021/06/14 06:20:12;;;;;;;4.22;3.10;;;;;;;15.85;83.70;100887.53;1739329;82;21830;-72
2021/06/14 06:22:39;;;;;;;5.67;2.83;;;;;;;15.80;83.39;100900.16;1728237;82;20884;-72
2021/06/14 06:25:13;;;;;;;6.00;2.67;;;;;;;15.77;84.43;100897.80;1715390;82;20880;-71
2021/06/14 06:27:41;;;;;;;6.72;2.85;;;;;;;15.80;84.88;100898.84;1715179;83;21155;-74
2021/06/14 06:30:09;;;;;;;9.20;3.12;;;;;;;15.94;86.23;100897.70;1715179;83;20932;-76
2021/06/14 06:32:38;;;;;;;4.95;2.92;;;;;;;16.12;85.32;100901.84;1715142;83;21082;-77
2021/06/14 06:35:09;;;;;;;5.78;3.40;;;;;;;16.25;83.56;100902.45;1725978;82;21063;-77
2021/06/14 06:37:37;;;;;;;3.87;2.95;;;;;;;16.25;82.84;100891.97;1739272;80;21436;-80
2021/06/14 06:40:09;;;;;;;2.80;2.60;;;;;;;16.22;81.97;100898.78;1732540;80;21495;-75
2021/06/14 06:42:41;;;;;;;5.08;2.50;;;;;;;16.08;82.28;100899.95;1722869;80;21067;-73
2021/06/14 06:45:09;;;;;;;4.35;2.92;;;;;;;16.02;82.26;100893.12;1711648;82;21545;-76
2021/06/14 06:47:36;;;;;;;3.37;2.65;;;;;;;16.02;83.81;100887.39;1744811;81;20971;-76
2021/06/14 06:50:06;;;;;;;3.15;2.83;;;;;;;16.13;83.72;100884.70;1744905;82;21436;-68
2021/06/14 06:52:36;;;;;;;6.03;3.17;;;;;;;16.28;83.40;100879.45;1694569;82;22598;-76
2021/06/14 06:55:09;;;;;;;6.75;2.92;;;;;;;16.49;83.62;100874.16;1710788;82;21074;-72
2021/06/14 06:57:37;;;;;;;3.77;2.70;;;;;;;16.67;82.11;100884.35;1744009;82;21087;-76
2021/06/14 07:00:10;;;;;;;7.30;2.70;;;;;;;16.74;80.84;100880.72;1743271;82;20975;-76
2021/06/14 07:02:36;;;;;;;4.65;3.05;;;;;;;16.76;80.04;100884.84;1743301;82;21263;-73
2021/06/14 07:05:05;;;;;;;4.05;2.60;;;;;;;16.70;79.06;100888.02;1743786;82;20908;-72
2021/06/14 07:07:32;;;;;;;3.90;2.90;;;;;;;16.61;79.97;100896.69;1743051;82;21632;-77
2021/06/14 07:10:05;;;;;;;5.37;2.55;;;;;;;16.54;80.34;100893.38;1742896;82;21112;-79
2021/06/14 07:12:34;;;;;;;4.45;2.52;;;;;;;16.55;80.58;100891.16;1742798;82;21195;-75
2021/06/14 07:15:01;;;;;;;4.08;2.77;;;;;;;16.61;81.02;100891.92;1743494;82;21079;-72
2021/06/14 07:17:28;;;;;;;4.92;2.90;;;;;;;16.70;81.05;100897.19;1743372;82;20975;-70
2021/06/14 07:19:55;;;;;;;3.75;2.80;;;;;;;16.81;79.93;100898.88;1743081;82;21070;-79
2021/06/14 07:22:23;;;;;;;3.72;2.45;;;;;;;16.99;80.59;100902.48;1742969;82;21103;-72
2021/06/14 07:24:53;;;;;;;3.47;2.50;;;;;;;17.10;79.07;100898.43;1743234;82;21556;-82
2021/06/14 07:27:20;;;;;;;7.22;3.10;;;;;;;17.20;76.93;100893.99;1737613;82;21035;-71
2021/06/14 07:29:47;;;;;;;6.60;2.52;;;;;;;17.27;76.98;100906.08;1718958;82;21023;-75
2021/06/14 07:32:15;;;;;;;3.17;2.47;;;;;;;17.35;77.37;100901.81;1729190;82;21018;-71
2021/06/14 07:34:43;;;;;;;4.22;2.55;;;;;;;17.43;76.21;100901.94;1711072;83;21779;-73
2021/06/14 07:37:10;;;;;;;3.77;2.58;;;;;;;17.55;76.11;100900.48;1710846;83;21155;-72
2021/06/14 07:39:39;;;;;;;3.75;2.60;;;;;;;17.61;75.31;100903.89;1711146;82;21653;-76
2021/06/14 07:42:07;;;;;;;6.10;2.50;;;;;;;17.57;75.43;100905.13;1710777;83;21115;-74
2021/06/14 07:44:34;;;;;;;5.17;3.05;;;;;;;17.48;74.98;100904.95;1710891;83;21035;-73
2021/06/14 07:47:04;;;;;;;3.90;2.80;;;;;;;17.53;76.06;100908.48;1711080;83;21127;-78
2021/06/14 07:49:35;;;;;;;12.63;3.95;;;;;;;17.66;75.76;100909.53;1710780;83;21395;-77
2021/06/14 07:52:03;;;;;;;6.40;2.50;;;;;;;17.85;76.47;100904.25;1719672;82;21709;-75
2021/06/14 07:54:31;;;;;;;7.12;3.20;;;;;;;18.11;74.31;100903.14;1708896;82;21866;-76
2021/06/14 07:57:00;;;;;;;3.08;2.52;;;;;;;18.30;72.68;100903.90;1740813;81;20974;-74
2021/06/14 07:59:27;;;;;;;4.95;2.67;;;;;;;18.37;71.32;100902.83;1740997;82;21514;-75
2021/06/14 08:02:00;;;;;;;7.45;2.50;;;;;;;18.38;71.98;100916.30;1740154;81;21080;-79
2021/06/14 08:04:28;;;;;;;4.05;2.92;;;;;;;18.41;71.10;100926.03;1740902;81;20994;-75
2021/06/14 08:06:57;;;;;;;2.72;2.40;;;;;;;18.38;71.39;100922.86;1741308;82;21042;-74
2021/06/14 08:09:28;;;;;;;4.87;2.50;;;;;;;18.43;70.61;100925.42;1741189;82;21113;-72
2021/06/14 08:11:56;;;;;;;4.00;2.75;;;;;;;18.51;71.04;100912.88;1740999;81;21106;-75
2021/06/14 08:14:23;;;;;;;6.87;2.87;;;;;;;18.68;71.38;100917.36;1740468;82;21037;-79
2021/06/14 08:16:50;;;;;;;4.33;2.83;;;;;;;18.80;69.75;100908.29;1740958;82;20991;-78
2021/06/14 08:19:31;;;;;;;4.05;2.65;;;;;;;18.85;69.70;100907.86;1741200;82;20986;-82
2021/06/14 08:27:12;;;;;;;6.85;2.60;;;;;;;18.99;67.69;100906.02;1740633;82;20994;-73
2021/06/14 08:29:39;;;;;;;6.25;2.60;;;;;;;19.01;67.76;100906.23;1740383;81;21110;-71
2021/06/14 08:32:07;;;;;;;8.68;2.70;;;;;;;18.98;67.28;100902.55;1750311;81;21058;-77
2021/06/14 08:34:34;;;;;;;4.30;2.50;;;;;;;18.92;67.83;100906.30;1762087;81;21298;-74
2021/06/14 08:37:03;;;;;;;3.67;2.22;;;;;;;18.86;69.17;100906.86;1762116;81;21139;-77
2021/06/14 08:39:32;;;;;;;4.53;2.50;;;;;;;18.96;68.29;100905.00;1761773;81;21163;-80
2021/06/14 08:42:00;;;;;;;3.90;2.30;;;;;;;19.05;67.58;100911.19;1762108;81;21088;-75
2021/06/14 08:44:29;;;;;;;3.55;2.52;;;;;;;19.12;68.32;100913.05;1762257;81;21050;-75
2021/06/14 08:46:56;;;;;;;4.40;2.70;;;;;;;19.07;65.15;100912.69;1762241;81;21120;-79
2021/06/14 08:49:23;;;;;;;6.28;2.80;;;;;;;18.96;66.07;100917.67;1762640;81;21595;-73
2021/06/14 08:51:54;;;;;;;3.37;2.40;;;;;;;18.96;67.11;100919.47;1762273;81;21615;-77
2021/06/14 08:54:25;;;;;;;10.27;2.40;;;;;;;19.11;67.30;100910.59;1755240;81;21078;-75
2021/06/14 08:56:54;;;;;;;5.80;2.42;;;;;;;19.23;66.21;100916.80;1745158;81;20998;-77
2021/06/14 08:59:23;;;;;;;5.10;2.45;;;;;;;19.36;65.26;100921.19;1731951;82;21077;-78
2021/06/14 09:01:50;;;;;;;2.50;2.30;;;;;;;19.49;64.12;100928.25;1731793;82;21143;-76
2021/06/14 09:04:19;;;;;;;7.72;2.67;;;;;;;19.51;63.89;100918.86;1731558;82;21525;-78
2021/06/14 09:06:46;;;;;;;6.00;2.20;;;;;;;19.44;64.41;100919.96;1732051;82;21081;-78
2021/06/14 09:09:14;;;;;;;5.80;2.52;;;;;;;19.33;63.63;100916.72;1732183;82;21085;-75
2021/06/14 09:11:54;;;;;;;3.58;2.20;;;;;;;19.25;65.65;100923.20;1702785;82;21093;-76
2021/06/14 09:14:24;;;;;;;3.65;2.12;;;;;;;19.13;63.60;100922.61;1732709;82;21093;-77
2021/06/14 09:16:58;;;;;;;3.22;2.30;;;;;;;18.93;64.33;100919.28;1733098;82;20923;-77
2021/06/14 09:19:38;;;;;;;2.80;2.40;;;;;;;18.94;65.24;100919.63;1728824;82;21158;-81
2021/06/14 09:22:23;;;;;;;3.77;2.12;;;;;;;19.04;66.14;100920.88;1732772;82;20998;-78
2021/06/14 09:25:00;;;;;;;5.70;1.87;;;;;;;19.26;65.40;100930.96;1732498;82;21767;-76
2021/06/14 09:27:42;;;;;;;4.87;2.20;;;;;;;19.51;65.24;100932.03;1732746;82;21056;-74
2021/06/14 09:30:32;;;;;;;3.75;2.33;;;;;;;19.83;64.49;100929.64;1731714;82;21053;-77
2021/06/14 09:33:05;;;;;;;5.87;2.50;;;;;;;20.03;62.23;100921.88;1710665;82;21459;-74
2021/06/14 09:35:36;;;;;;;7.58;3.10;;;;;;;19.99;62.87;100935.02;1709453;83;21050;-75
2021/06/14 09:38:13;;;;;;;4.03;2.20;;;;;;;19.92;63.12;100938.42;1708955;84;21510;-74
2021/06/14 09:40:46;;;;;;;2.60;1.92;;;;;;;19.84;62.64;100937.89;1701312;84;21142;-74
2021/06/14 09:43:30;;;;;;;5.85;2.40;;;;;;;19.71;61.54;100934.00;1701426;83;37794;-82
2021/06/14 09:46:01;;;;;;;3.52;2.10;;;;;;;19.83;64.37;100938.03;1701929;84;21067;-73
2021/06/14 09:48:29;;;;;;;3.10;2.33;;;;;;;20.17;63.31;100931.00;1709106;83;21072;-80
2021/06/14 09:50:59;;;;;;;3.20;2.10;;;;;;;20.50;62.88;100922.30;1701643;83;21051;-77
2021/06/14 09:53:34;;;;;;;5.28;2.20;;;;;;;20.68;62.10;100930.10;1701514;84;21855;-76
2021/06/14 09:55:56;;;;;;;3.17;2.08;;;;;;;20.67;61.07;100928.47;1701073;83;21079;-76
2021/06/14 09:58:26;;;;;;;3.20;1.90;;;;;;;20.59;61.42;100936.34;1700998;84;21079;-80
2021/06/14 10:00:56;;;;;;;5.45;2.42;;;;;;;20.40;60.62;100930.83;1701355;83;20998;-83
2021/06/14 10:03:27;;;;;;;5.87;2.80;;;;;;;20.35;59.86;100931.80;1701130;84;21179;-74
2021/06/14 10:05:58;;;;;;;3.70;2.20;;;;;;;20.37;61.22;100939.05;1708530;83;21186;-76
2021/06/14 10:08:32;;;;;;;7.60;2.47;;;;;;;20.52;59.23;100939.27;1708840;83;20979;-73
2021/06/14 10:11:04;;;;;;;3.85;2.00;;;;;;;20.68;58.28;100935.89;1714699;81;21000;-74
2021/06/14 10:13:32;;;;;;;3.45;2.00;;;;;;;20.76;57.10;100934.10;1737860;81;21098;-74
2021/06/14 10:16:11;;;;;;;2.58;1.80;;;;;;;20.78;57.75;100937.88;1709075;81;21078;-73
2021/06/14 10:18:42;;;;;;;5.60;2.25;;;;;;;20.65;57.94;100937.50;1708325;83;21104;-75
2021/06/14 10:21:29;;;;;;;4.70;2.10;;;;;;;20.64;58.45;100944.61;1708682;83;21076;-70
2021/06/14 10:24:00;;;;;;;2.75;1.98;;;;;;;20.79;57.52;100944.33;1718795;82;21777;-76
2021/06/14 10:26:29;;;;;;;3.62;1.90;;;;;;;21.06;57.92;100940.59;1731268;81;21642;-76
2021/06/14 10:28:58;;;;;;;2.90;1.90;;;;;;;21.10;55.86;100941.47;1730812;81;21120;-76
2021/06/14 10:31:25;;;;;;;3.70;2.05;;;;;;;21.09;56.28;100945.09;1730455;82;21123;-83
2021/06/14 10:33:54;;;;;;;3.67;2.10;;;;;;;21.16;56.63;100936.03;1739641;82;21538;-77
2021/06/14 10:36:25;;;;;;;3.98;2.27;;;;;;;21.34;56.90;100934.09;1740591;81;21523;-78
2021/06/14 10:38:55;;;;;;;2.80;1.75;;;;;;;21.54;58.18;100932.75;1740378;81;21840;-76
2021/06/14 10:41:23;;;;;;;5.45;2.15;;;;;;;21.79;54.57;100927.47;1740779;81;21842;-76
2021/06/14 10:43:52;;;;;;;4.45;1.92;;;;;;;21.93;54.17;100932.09;1740732;81;21104;-83
2021/06/14 10:46:22;;;;;;;3.08;1.95;;;;;;;21.96;55.19;100933.91;1740230;81;21031;-81
2021/06/14 10:48:57;;;;;;;4.40;1.82;;;;;;;21.86;54.75;100938.51;1740560;81;21465;-73
2021/06/14 10:51:24;;;;;;;3.80;2.30;;;;;;;21.68;54.69;100942.33;1741070;82;21609;-79
2021/06/14 10:53:51;;;;;;;2.90;2.02;;;;;;;21.53;53.95;100930.30;1741017;82;21073;-79
2021/06/14 10:56:23;;;;;;;6.33;2.25;;;;;;;21.51;54.27;100926.48;1740687;81;21171;-70
2021/06/14 10:59:00;;;;;;;;;;;;;;;21.51;54.65;100925.16;1743927;82;21053;-77
2021/06/14 11:01:33;;;;;;;3.85;2.10;;;;;;;21.44;54.43;100927.33;1740470;82;20206;-71
2021/06/14 11:04:04;;;;;;;2.47;2.00;;;;;;;21.23;55.12;100918.55;1739574;82;21035;-73
2021/06/14 11:06:36;;;;;;;4.90;1.85;;;;;;;21.08;55.64;100926.27;1740585;81;21110;-76
2021/06/14 11:09:12;;;;;;;5.53;2.37;;;;;;;20.84;55.35;100919.60;1740630;82;21600;-74
2021/06/14 11:11:57;;;;;;;2.35;1.87;;;;;;;20.65;55.88;100911.96;1740778;82;20987;-79
2021/06/14 11:14:33;;;;;;;6.00;2.12;;;;;;;20.72;56.42;100912.16;1740889;81;21046;-74
2021/06/14 11:17:22;;;;;;;4.75;2.27;;;;;;;20.96;56.82;100916.98;1741237;81;21002;-74
2021/06/14 11:20:02;;;;;;;3.27;2.20;;;;;;;21.13;54.97;100913.09;1741053;81;21082;-76
2021/06/14 11:22:48;;;;;;;2.33;2.08;;;;;;;21.14;55.97;100911.63;1707102;82;21406;-78
2021/06/14 11:25:33;;;;;;;3.22;2.12;;;;;;;21.05;56.02;100916.53;1723724;81;21683;-74
2021/06/14 11:28:04;;;;;;;7.05;2.42;;;;;;;20.91;56.16;100913.19;1739912;81;21146;-74
2021/06/14 11:30:33;;;;;;;4.72;2.75;;;;;;;20.84;57.68;100912.17;1741050;82;21010;-73
2021/06/14 11:33:00;;;;;;;4.58;2.25;;;;;;;20.88;57.68;100905.11;1739966;81;20971;-75
2021/06/14 11:35:28;;;;;;;3.22;1.98;;;;;;;20.97;56.23;100893.58;1740551;82;21164;-74
2021/06/14 11:37:56;;;;;;;4.35;1.98;;;;;;;21.18;57.00;100892.33;1740853;82;21047;-75
2021/06/14 11:40:33;;;;;;;4.87;2.37;;;;;;;21.31;56.15;100887.39;1740625;82;21078;-76
2021/06/14 11:43:11;;;;;;;4.33;2.22;;;;;;;21.43;56.17;100894.81;1740955;81;21039;-71